Latest Coastal Weather Observations for Weipa

IDQ60701

Issued at 7:05 pm EST Thursday 23 October 2014 (issued every 10 minutes, with the page automatically refreshed every 10 minutes)

About coastal observations | Map of coastal stations | Coastal observations for QLD | Marine services | Other Formats
Station Details ID: 027045 Name: WEIPA AERO Lat: -12.68 Lon: 141.92 Height: 17.96 m
Data from the previous 72 hours. | See also: Recent months at Weipa
Date/Time
EST
Temp

°C
Wind Pressure Rain
since 9am
mm
Weather Cloud Vis
km
Sea
Height
m
Swell
Dir
 
Speed
knots
Gust
knots
hPa Trend Height
m
Period
s
Dir
23/07:00pm 28.6 E 10 17 1013.0 - 0.0 - Cloudy 10 - - - -
23/06:30pm 28.4 NNE 6 13 1012.4 - 0.0 - Cloudy 10 - - - -
23/06:00pm 30.2 E 8 13 1011.4 - 0.0 - Cloudy 10 - - - -
23/05:30pm 30.9 E 11 21 1011.0 - 0.0 - Partly cloudy 10 - - - -
23/05:00pm 31.7 E 7 12 1010.4 - 0.0 - Partly cloudy 10 - - - -
23/04:30pm 32.7 E 10 18 1010.2 - 0.0 - Partly cloudy 10 - - - -
23/04:00pm 33.7 ENE 10 15 1010.0 - 0.0 - Partly cloudy 10 - - - -
23/03:30pm 33.5 E 7 16 1010.0 - 0.0 - Partly cloudy 10 - - - -
23/03:00pm 33.7 ENE 8 13 1009.9 F 0.0 Haze Mostly cloudy 10 - - - -
23/02:30pm 34.5 ESE 10 16 1010.3 - 0.0 - Partly cloudy 10 - - - -
23/02:00pm 33.4 SE 6 13 1010.5 - 0.0 - Partly cloudy 10 - - - -
23/01:30pm 33.0 ESE 7 14 1011.0 - 0.0 - Partly cloudy 10 - - - -
23/01:00pm 33.6 ESE 12 19 1011.6 - 0.0 - Partly cloudy 10 - - - -
23/12:30pm 32.9 ESE 10 14 1012.2 - 0.0 - Partly cloudy 10 - - - -
23/12:00pm 31.6 SE 9 16 1012.6 F 0.0 Haze Partly cloudy 20 - - - -
23/11:30am 31.4 ESE 10 17 1013.4 - 0.0 - - 10 - - - -
23/11:00am 30.1 ENE 11 13 1013.8 - 0.0 - Mostly clear 10 - - - -
23/10:30am 29.9 ENE 10 15 1014.2 - 0.0 - - 10 - - - -
23/10:00am 29.0 ESE 13 18 1014.6 - 0.0 - Mostly clear 10 - - - -
23/09:30am 28.3 ESE 13 18 1015.0 - 0.0 - - 10 - - - -
23/09:00am 26.7 E 12 17 1015.1 F 3.0 Haze Mostly clear 25 - - - -
23/08:30am 25.8 ESE 11 16 1015.4 - 3.0 - Partly cloudy 10 - - - -
23/08:00am 25.3 ESE 14 20 1015.2 - 3.0 - Mostly clear 10 - - - -
23/07:30am 24.4 ESE 11 16 1015.0 - 3.0 - - 10 - - - -
23/07:00am 23.1 ESE 7 10 1014.8 - 3.0 - - 10 - - - -
23/06:30am 21.8 SE 5 7 1014.5 - 3.0 - - 10 - - - -
23/06:00am 21.2 ESE 4 5 1014.3 R 3.0 Haze Mostly clear 20 - - - -
23/05:30am 21.3 ESE 5 6 1013.9 - 3.0 - - 10 - - - -
23/05:00am 21.8 SE 4 6 1013.9 - 3.0 - - 10 - - - -
23/04:30am 22.0 SE 3 6 1013.6 - 3.0 - - 10 - - - -
23/04:00am 22.1 SE 4 5 1013.5 - 3.0 - - 9 - - - -
23/03:30am 22.6 ESE 8 11 1013.5 - 3.0 - - 10 - - - -
23/03:00am 22.7 ESE 9 11 1013.2 - 3.0 - - 10 - - - -
23/02:30am 22.1 ESE 4 7 1013.5 - 3.0 - - 10 - - - -
23/02:00am 22.2 E 3 4 1013.8 - 3.0 - - 10 - - - -
23/01:30am 22.4 ESE 3 3 1014.1 - 3.0 - - 10 - - - -
23/01:00am 22.7 E 4 6 1014.7 - 3.0 - - 10 - - - -
23/12:30am 23.2 E 3 5 1015.0 - 3.0 - - 10 - - - -
23/12:00am 23.5 E 5 6 1015.0 - 3.0 - - 10 - - - -
 
Date/Time
EST
Temp

°C
Wind Pressure Rain
since 9am
mm
Weather Cloud Vis
km
Sea
Height
m
Swell
Dir
 
Speed
knots
Gust
knots
hPa Trend Height
m
Period
s
Dir
22/11:30pm 23.9 E 6 9 1015.4 - 3.0 - - 10 - - - -
22/11:00pm 24.2 E 4 6 1015.6 - 3.0 - - 10 - - - -
22/10:30pm 24.7 E 7 10 1015.7 - 3.0 - - 10 - - - -
22/10:00pm 25.1 E 8 13 1015.4 - 3.0 - - 10 - - - -
22/09:30pm 25.8 E 9 15 1014.9 - 3.0 - - 10 - - - -
22/09:00pm 26.4 E 9 14 1014.3 - 3.0 - Cloudy 10 - - - -
22/08:30pm 26.8 E 7 10 1014.3 - 3.0 - Partly cloudy 10 - - - -
22/08:00pm 26.3 NNE 3 6 1013.9 - 3.0 - Partly cloudy 10 - - - -
22/07:30pm 26.1 NNE 3 6 1013.4 - 3.0 - Partly cloudy 10 - - - -
22/07:00pm 25.7 N 3 5 1012.8 - 3.0 - Cloudy 10 - - - -
22/06:30pm 26.1 E 2 3 1012.1 - 3.0 - Cloudy 10 - - - -
22/06:00pm 26.1 N 3 5 1011.2 - 3.0 - Cloudy 10 - - - -
22/05:47pm 26.1 SSW 3 6 1011.4 - 3.0 - Partly cloudy 6 - - - -
22/05:36pm 26.1 W 4 10 1011.4 - 3.0 - Partly cloudy 9 - - - -
22/05:30pm 26.1 W 4 10 1011.4 - 3.0 - Partly cloudy 7 - - - -
22/05:01pm 27.7 WSW 5 10 1011.2 - 0.4 - Partly cloudy 6 - - - -
22/05:00pm 27.8 W 6 10 1011.1 - 0.2 - Partly cloudy 7 - - - -
22/04:30pm 30.9 W 8 12 1010.5 - 0.0 - Partly cloudy 10 - - - -
22/04:00pm 31.2 W 5 10 1010.5 - 0.0 - Partly cloudy 10 - - - -
22/03:30pm 31.5 W 7 12 1010.8 - 0.0 - Partly cloudy 10 - - - -
22/03:00pm 31.5 NW 5 9 1010.8 F 0.0 Haze Mostly cloudy 9 - - - -
22/02:30pm 33.8 E 7 11 1011.0 - 0.0 - Partly cloudy 10 - - - -
22/02:00pm 34.4 ESE 8 18 1011.3 - 0.0 - Mostly cloudy 9 - - - -
22/01:30pm 34.3 ESE 9 15 1011.8 - 0.0 - Partly cloudy 10 - - - -
22/01:00pm 34.4 E 10 14 1012.4 - 0.0 - Partly cloudy 10 - - - -
22/12:30pm 34.2 ESE 10 15 1012.9 - 0.0 - Partly cloudy 10 - - - -
22/12:00pm 33.3 E 9 16 1013.3 F 0.0 Haze Partly cloudy 20 - - - -
22/11:30am 33.1 E 11 17 1014.0 - 0.0 - Partly cloudy 10 - - - -
22/11:00am 31.9 ESE 11 17 1014.4 - 0.0 - Partly cloudy 10 - - - -
22/10:30am 31.1 E 11 17 1014.8 - 0.0 - - 10 - - - -
22/10:00am 30.0 ESE 13 19 1015.1 - 0.0 - Mostly clear 10 - - - -
22/09:30am 28.8 E 15 21 1015.3 - 0.0 - - 10 - - - -
22/09:00am 28.0 ESE 11 17 1015.3 F 0.0 Haze Mostly clear 10 - - - -
22/08:30am 26.8 ESE 13 19 1015.5 - 0.0 - - 10 - - - -
22/08:00am 25.7 ESE 10 14 1015.3 - 0.0 - Mostly clear 10 - - - -
22/07:30am 24.1 SE 5 7 1015.2 - 0.0 - Mostly clear 8 - - - -
22/07:00am 22.7 ESE 3 6 1014.9 - 0.0 - Mostly clear 6 - - - -
22/06:30am 21.2 ESE 2 3 1014.7 - 0.0 - Mostly clear 6 - - - -
22/06:00am 21.1 ESE 2 4 1014.2 R 0.0 Haze Partly cloudy 6 - - - -
22/05:30am 21.4 ESE 3 3 1014.0 - - - - 9 - - - -
22/05:00am 21.5 ESE 3 3 1013.7 - - - - 9 - - - -
22/04:30am 21.9 E 3 4 1013.5 - - - - 9 - - - -
22/04:00am 21.6 E 2 5 1013.5 - - - - 9 - - - -
22/03:30am 21.8 E 1 2 1013.5 - - - - 9 - - - -
22/03:00am 22.4 E 2 3 1013.2 - - - - 10 - - - -
22/02:30am 22.7 E 2 3 1013.6 - - - - 10 - - - -
22/02:00am 23.2 E 3 4 1014.0 - - - - 10 - - - -
22/01:30am 23.5 E 4 6 1014.3 - - - - 10 - - - -
22/01:00am 23.8 E 4 7 1014.7 - - - - 10 - - - -
22/12:30am 24.0 E 5 7 1015.0 - - - - 10 - - - -
22/12:00am 24.1 ESE 4 7 1015.1 - - - - 10 - - - -
 
Date/Time
EST
Temp

°C
Wind Pressure Rain
since 9am
mm
Weather Cloud Vis
km
Sea
Height
m
Swell
Dir
 
Speed
knots
Gust
knots
hPa Trend Height
m
Period
s
Dir
21/11:30pm 24.5 E 4 5 1015.7 - - - - 10 - - - -
21/11:00pm 24.9 E 3 5 1015.8 - - - - 10 - - - -
21/10:30pm 25.4 E 5 9 1015.6 - - - - 10 - - - -
21/10:00pm 25.9 E 7 10 1015.4 - - - - 10 - - - -
21/09:30pm 26.5 E 10 15 1015.0 - - - - 10 - - - -
21/09:00pm 27.1 E 7 11 1014.7 - - - - 10 - - - -
21/08:30pm 27.6 E 7 13 1014.6 - - - - 10 - - - -
21/08:00pm 27.7 E 5 10 1014.5 - - - - 10 - - - -
21/07:30pm 27.2 NNE 3 6 1014.0 - - - - 10 - - - -
21/07:00pm 27.7 NNW 5 7 1013.4 - - - Partly cloudy 10 - - - -
21/06:30pm 27.9 NW 6 8 1012.7 - - - Cloudy 10 - - - -
21/06:00pm 29.1 WNW 6 8 1011.9 - - - Cloudy 10 - - - -
21/05:30pm 30.2 WNW 4 7 1011.7 - - - Partly cloudy 10 - - - -
21/05:00pm 33.0 NE 4 10 1011.4 - - - - 10 - - - -
21/04:30pm 34.3 ENE 7 13 1010.8 - - - - 10 - - - -
21/04:00pm 34.0 E 6 9 1010.7 - - - - 9 - - - -
21/03:30pm 34.2 E 6 10 1010.8 - - - - 10 - - - -
21/03:00pm 34.2 E 8 11 1010.9 F 0.0 Haze Partly cloudy 5 - - - -
21/02:30pm 33.8 SE 8 12 1011.4 - 0.0 - - 10 - - - -
21/02:00pm 34.1 SSE 7 12 1011.6 - 0.0 - Partly cloudy 8 - - - -
21/01:30pm 35.1 ESE 7 16 1012.1 - 0.0 - Partly cloudy 10 - - - -
21/01:00pm 34.1 ESE 8 14 1012.8 - 0.0 - Partly cloudy 8 - - - -
21/12:30pm 33.9 ESE 8 18 1013.3 - 0.0 - Mostly clear 9 - - - -
21/12:00pm 33.4 SE 11 13 1013.8 F 0.0 Haze Mostly clear 5 - - - -
21/11:30am 31.9 E 8 15 1014.5 - 0.0 Smoke Mostly clear 5 - - - -
21/11:00am 32.0 E 10 18 1014.9 - 0.0 Smoke Mostly clear 4 - - - -
21/10:30am 31.2 ESE 11 17 1015.1 - 0.0 Smoke - 5 - - - -
21/10:00am 30.0 ESE 11 17 1015.3 - 0.0 Smoke - 5 - - - -
21/09:30am 29.5 ESE 11 17 1015.4 - 0.0 - - 10 - - - -
21/09:00am 27.8 ESE 12 18 1015.3 F 0.0 Haze Clear 8 - - - -
21/08:30am 27.2 ESE 12 17 1015.6 - 0.0 - - 10 - - - -
21/08:00am 25.8 ESE 10 16 1015.4 - 0.0 - Mostly clear 10 - - - -
21/07:30am 24.2 SSE 5 8 1015.3 - 0.0 - - 10 - - - -
21/07:00am 22.1 SSE 3 4 1014.9 - 0.0 - - 10 - - - -
21/06:30am 20.4 S 3 4 1014.6 - 0.0 - - 10 - - - -
21/06:00am 20.2 SSE 2 3 1014.2 S 0.0 Haze Mostly clear 8 - - - -
21/05:30am 20.3 SSE 1 3 1014.0 - 0.0 - - 7 - - - -
21/05:00am 20.7 SSE 1 3 1013.9 - 0.0 - - 9 - - - -
21/04:30am 20.7 ESE 2 2 1013.7 - 0.0 - - 7 - - - -
21/04:06am 21.0 SE 2 2 1013.5 - 0.0 - - 7 - - - -
21/04:00am 21.1 SE 1 2 1013.4 - 0.0 - - 7 - - - -
21/03:37am 21.3 SE 1 2 1013.3 - 0.0 - - 6 - - - -
21/03:30am 21.3 SE 1 3 1013.4 - 0.0 - - 7 - - - -
21/03:00am 21.7 SE 1 2 1013.3 - 0.0 - - 8 - - - -
21/02:30am 22.0 ESE 2 3 1013.8 - 0.0 - - 8 - - - -
21/02:00am 22.5 SSE 2 3 1013.9 - 0.0 - - 9 - - - -
21/01:30am 23.2 SE 3 5 1014.1 - 0.0 - - 10 - - - -
21/01:00am 23.4 SE 3 4 1014.4 - 0.0 - - 10 - - - -
21/12:30am 24.0 ESE 4 5 1014.7 - 0.0 - - 10 - - - -
21/12:00am 24.4 ESE 6 9 1014.7 - 0.0 - - 10 - - - -
 
Date/Time
EST
Temp

°C
Wind Pressure Rain
since 9am
mm
Weather Cloud Vis
km
Sea
Height
m
Swell
Dir
 
Speed
knots
Gust
knots
hPa Trend Height
m
Period
s
Dir
20/11:30pm 24.8 ESE 7 10 1015.0 - 0.0 - - 10 - - - -
20/11:00pm 25.2 ESE 8 12 1015.0 - 0.0 - - 10 - - - -
20/10:30pm 25.5 E 9 14 1015.0 - 0.0 - - 10 - - - -
20/10:00pm 25.7 ESE 8 12 1014.8 - 0.0 - - 10 - - - -
20/09:30pm 26.1 E 11 17 1014.3 - 0.0 - - 10 - - - -
20/09:00pm 26.7 E 12 17 1013.9 - 0.0 - - 10 - - - -
20/08:30pm 27.0 E 12 18 1013.7 - 0.0 - - 10 - - - -
20/08:00pm 27.5 E 13 20 1013.3 - 0.0 - - 10 - - - -
20/07:30pm 27.8 E 11 17 1012.8 - 0.0 - - 10 - - - -

Other Formats:

Comma delimited format used in spreadsheet applications
http://www.bom.gov.au/fwo/IDQ60701/IDQ60701.94170.axf

JavaScript Object Notation format (JSON) in row-major order
http://www.bom.gov.au/fwo/IDQ60701/IDQ60701.94170.json